sensor_id;sensor_type;location;lat;lon;timestamp;P1;durP1;ratioP1;P2;durP2;ratioP2
26319;SDS011;14024;52.226;5.200;2023-03-01T00:00:37;23.80;;;12.82;;
26319;SDS011;14024;52.226;5.200;2023-03-01T00:03:03;25.58;;;13.00;;
26319;SDS011;14024;52.226;5.200;2023-03-01T00:05:29;24.85;;;12.98;;
26319;SDS011;14024;52.226;5.200;2023-03-01T00:07:55;26.83;;;13.88;;
26319;SDS011;14024;52.226;5.200;2023-03-01T00:10:21;25.05;;;13.65;;
26319;SDS011;14024;52.226;5.200;2023-03-01T00:12:47;26.65;;;13.18;;
26319;SDS011;14024;52.226;5.200;2023-03-01T00:15:13;29.73;;;14.88;;
26319;SDS011;14024;52.226;5.200;2023-03-01T00:17:39;27.38;;;13.77;;
26319;SDS011;14024;52.226;5.200;2023-03-01T00:20:05;25.52;;;13.30;;
26319;SDS011;14024;52.226;5.200;2023-03-01T00:22:35;26.42;;;13.63;;
26319;SDS011;14024;52.226;5.200;2023-03-01T00:25:01;26.38;;;13.55;;
26319;SDS011;14024;52.226;5.200;2023-03-01T00:27:27;27.98;;;14.00;;
26319;SDS011;14024;52.226;5.200;2023-03-01T00:29:53;25.42;;;13.55;;
26319;SDS011;14024;52.226;5.200;2023-03-01T00:32:19;26.58;;;13.27;;
26319;SDS011;14024;52.226;5.200;2023-03-01T00:34:45;24.45;;;12.90;;
26319;SDS011;14024;52.226;5.200;2023-03-01T00:37:19;27.48;;;13.32;;
26319;SDS011;14024;52.226;5.200;2023-03-01T00:39:45;25.48;;;13.63;;
26319;SDS011;14024;52.226;5.200;2023-03-01T00:42:12;25.92;;;13.43;;
26319;SDS011;14024;52.226;5.200;2023-03-01T00:44:38;28.10;;;13.82;;
26319;SDS011;14024;52.226;5.200;2023-03-01T00:47:04;26.15;;;13.10;;
26319;SDS011;14024;52.226;5.200;2023-03-01T00:49:30;26.42;;;13.32;;
26319;SDS011;14024;52.226;5.200;2023-03-01T00:51:56;28.98;;;13.65;;
26319;SDS011;14024;52.226;5.200;2023-03-01T00:54:22;23.50;;;12.65;;
26319;SDS011;14024;52.226;5.200;2023-03-01T00:56:48;26.83;;;14.18;;
26319;SDS011;14024;52.226;5.200;2023-03-01T00:59:14;25.35;;;13.15;;
26319;SDS011;14024;52.226;5.200;2023-03-01T01:01:40;26.90;;;13.43;;
26319;SDS011;14024;52.226;5.200;2023-03-01T01:04:10;26.95;;;13.68;;
26319;SDS011;14024;52.226;5.200;2023-03-01T01:06:37;25.60;;;13.30;;
26319;SDS011;14024;52.226;5.200;2023-03-01T01:09:05;25.80;;;13.55;;
26319;SDS011;14024;52.226;5.200;2023-03-01T01:11:31;27.20;;;13.73;;
26319;SDS011;14024;52.226;5.200;2023-03-01T01:13:58;28.90;;;13.23;;
26319;SDS011;14024;52.226;5.200;2023-03-01T01:16:25;27.25;;;14.35;;
26319;SDS011;14024;52.226;5.200;2023-03-01T01:18:51;23.67;;;12.27;;
26319;SDS011;14024;52.226;5.200;2023-03-01T01:21:18;26.73;;;13.80;;
26319;SDS011;14024;52.226;5.200;2023-03-01T01:23:45;28.08;;;14.25;;
26319;SDS011;14024;52.226;5.200;2023-03-01T01:26:13;28.95;;;14.65;;
26319;SDS011;14024;52.226;5.200;2023-03-01T01:28:40;28.00;;;14.15;;
26319;SDS011;14024;52.226;5.200;2023-03-01T01:31:06;26.02;;;13.15;;
26319;SDS011;14024;52.226;5.200;2023-03-01T01:33:32;31.90;;;14.88;;
26319;SDS011;14024;52.226;5.200;2023-03-01T01:35:58;31.95;;;14.65;;
26319;SDS011;14024;52.226;5.200;2023-03-01T01:38:24;28.50;;;14.10;;
26319;SDS011;14024;52.226;5.200;2023-03-01T01:40:50;25.10;;;13.20;;
26319;SDS011;14024;52.226;5.200;2023-03-01T01:43:21;30.40;;;14.57;;
26319;SDS011;14024;52.226;5.200;2023-03-01T01:45:47;26.40;;;13.63;;
26319;SDS011;14024;52.226;5.200;2023-03-01T01:48:15;28.70;;;14.23;;
26319;SDS011;14024;52.226;5.200;2023-03-01T01:50:43;27.05;;;14.57;;
26319;SDS011;14024;52.226;5.200;2023-03-01T01:53:11;32.63;;;14.13;;
26319;SDS011;14024;52.226;5.200;2023-03-01T01:55:39;29.52;;;13.73;;
26319;SDS011;14024;52.226;5.200;2023-03-01T01:58:07;29.70;;;14.02;;
26319;SDS011;14024;52.226;5.200;2023-03-01T02:00:34;26.33;;;13.68;;
26319;SDS011;14024;52.226;5.200;2023-03-01T02:03:10;29.45;;;14.45;;
26319;SDS011;14024;52.226;5.200;2023-03-01T02:05:38;27.45;;;14.50;;
26319;SDS011;14024;52.226;5.200;2023-03-01T02:08:08;32.42;;;15.82;;
26319;SDS011;14024;52.226;5.200;2023-03-01T02:10:36;32.10;;;16.40;;
26319;SDS011;14024;52.226;5.200;2023-03-01T02:13:03;29.27;;;14.80;;
26319;SDS011;14024;52.226;5.200;2023-03-01T02:15:36;29.13;;;14.93;;
26319;SDS011;14024;52.226;5.200;2023-03-01T02:18:02;30.63;;;14.38;;
26319;SDS011;14024;52.226;5.200;2023-03-01T02:20:39;32.53;;;15.95;;
26319;SDS011;14024;52.226;5.200;2023-03-01T02:23:11;31.60;;;14.55;;
26319;SDS011;14024;52.226;5.200;2023-03-01T02:25:43;32.90;;;16.02;;
26319;SDS011;14024;52.226;5.200;2023-03-01T02:30:41;32.08;;;15.73;;
26319;SDS011;14024;52.226;5.200;2023-03-01T02:33:28;33.38;;;15.85;;
26319;SDS011;14024;52.226;5.200;2023-03-01T02:36:03;28.98;;;14.20;;
26319;SDS011;14024;52.226;5.200;2023-03-01T02:38:32;29.52;;;15.32;;
26319;SDS011;14024;52.226;5.200;2023-03-01T02:40:58;30.58;;;14.90;;
26319;SDS011;14024;52.226;5.200;2023-03-01T02:43:26;31.20;;;14.70;;
26319;SDS011;14024;52.226;5.200;2023-03-01T02:45:57;32.92;;;16.45;;
26319;SDS011;14024;52.226;5.200;2023-03-01T02:48:23;31.73;;;15.90;;
26319;SDS011;14024;52.226;5.200;2023-03-01T02:53:23;31.77;;;16.13;;
26319;SDS011;14024;52.226;5.200;2023-03-01T02:55:51;31.92;;;15.60;;
26319;SDS011;14024;52.226;5.200;2023-03-01T02:58:17;35.83;;;15.95;;
26319;SDS011;14024;52.226;5.200;2023-03-01T03:00:43;31.73;;;16.30;;
26319;SDS011;14024;52.226;5.200;2023-03-01T03:03:13;35.60;;;15.90;;
26319;SDS011;14024;52.226;5.200;2023-03-01T03:05:39;37.30;;;17.73;;
26319;SDS011;14024;52.226;5.200;2023-03-01T03:08:05;33.35;;;15.10;;
26319;SDS011;14024;52.226;5.200;2023-03-01T03:10:33;32.83;;;16.30;;
26319;SDS011;14024;52.226;5.200;2023-03-01T03:13:01;37.80;;;17.50;;
26319;SDS011;14024;52.226;5.200;2023-03-01T03:15:27;31.85;;;15.10;;
26319;SDS011;14024;52.226;5.200;2023-03-01T03:17:54;31.90;;;15.50;;
26319;SDS011;14024;52.226;5.200;2023-03-01T03:20:21;36.20;;;16.52;;
26319;SDS011;14024;52.226;5.200;2023-03-01T03:22:48;32.20;;;15.88;;
26319;SDS011;14024;52.226;5.200;2023-03-01T03:25:15;31.05;;;15.25;;
26319;SDS011;14024;52.226;5.200;2023-03-01T03:27:42;32.78;;;15.93;;
26319;SDS011;14024;52.226;5.200;2023-03-01T03:30:11;39.30;;;16.17;;
26319;SDS011;14024;52.226;5.200;2023-03-01T03:32:38;33.97;;;15.13;;
26319;SDS011;14024;52.226;5.200;2023-03-01T03:35:06;31.92;;;15.40;;
26319;SDS011;14024;52.226;5.200;2023-03-01T03:37:40;34.92;;;15.93;;
26319;SDS011;14024;52.226;5.200;2023-03-01T03:40:26;33.15;;;15.82;;
26319;SDS011;14024;52.226;5.200;2023-03-01T03:42:52;36.05;;;16.27;;
26319;SDS011;14024;52.226;5.200;2023-03-01T03:45:18;37.15;;;15.80;;
26319;SDS011;14024;52.226;5.200;2023-03-01T03:47:44;36.15;;;16.10;;
26319;SDS011;14024;52.226;5.200;2023-03-01T03:50:11;37.75;;;15.25;;
26319;SDS011;14024;52.226;5.200;2023-03-01T03:52:37;37.30;;;16.10;;
26319;SDS011;14024;52.226;5.200;2023-03-01T03:55:04;31.88;;;15.98;;
26319;SDS011;14024;52.226;5.200;2023-03-01T03:57:34;34.20;;;15.65;;
26319;SDS011;14024;52.226;5.200;2023-03-01T04:00:00;37.92;;;16.70;;
26319;SDS011;14024;52.226;5.200;2023-03-01T04:02:28;42.08;;;17.70;;
26319;SDS011;14024;52.226;5.200;2023-03-01T04:04:54;36.75;;;16.13;;
26319;SDS011;14024;52.226;5.200;2023-03-01T04:07:20;35.95;;;17.00;;
26319;SDS011;14024;52.226;5.200;2023-03-01T04:09:46;40.33;;;16.88;;
26319;SDS011;14024;52.226;5.200;2023-03-01T04:12:12;34.28;;;15.50;;
26319;SDS011;14024;52.226;5.200;2023-03-01T04:14:38;33.67;;;16.17;;
26319;SDS011;14024;52.226;5.200;2023-03-01T04:17:04;35.28;;;16.75;;
26319;SDS011;14024;52.226;5.200;2023-03-01T04:19:31;38.15;;;16.08;;
26319;SDS011;14024;52.226;5.200;2023-03-01T04:22:01;37.53;;;16.88;;
26319;SDS011;14024;52.226;5.200;2023-03-01T04:24:32;35.00;;;16.58;;
26319;SDS011;14024;52.226;5.200;2023-03-01T04:26:58;32.00;;;16.17;;
26319;SDS011;14024;52.226;5.200;2023-03-01T04:29:24;40.60;;;16.83;;
26319;SDS011;14024;52.226;5.200;2023-03-01T04:31:50;35.60;;;15.73;;
26319;SDS011;14024;52.226;5.200;2023-03-01T04:34:16;40.10;;;16.60;;
26319;SDS011;14024;52.226;5.200;2023-03-01T04:36:42;35.15;;;16.35;;
26319;SDS011;14024;52.226;5.200;2023-03-01T04:39:08;35.42;;;16.13;;
26319;SDS011;14024;52.226;5.200;2023-03-01T04:41:37;32.05;;;15.35;;
26319;SDS011;14024;52.226;5.200;2023-03-01T04:44:08;30.20;;;15.18;;
26319;SDS011;14024;52.226;5.200;2023-03-01T04:46:34;33.22;;;16.40;;
26319;SDS011;14024;52.226;5.200;2023-03-01T04:49:00;31.45;;;14.73;;
26319;SDS011;14024;52.226;5.200;2023-03-01T04:51:26;33.08;;;15.13;;
26319;SDS011;14024;52.226;5.200;2023-03-01T04:53:52;31.58;;;14.68;;
26319;SDS011;14024;52.226;5.200;2023-03-01T04:56:18;31.90;;;16.20;;
26319;SDS011;14024;52.226;5.200;2023-03-01T04:58:45;35.58;;;16.75;;
26319;SDS011;14024;52.226;5.200;2023-03-01T05:01:11;39.53;;;17.38;;
26319;SDS011;14024;52.226;5.200;2023-03-01T05:03:45;32.47;;;15.50;;
26319;SDS011;14024;52.226;5.200;2023-03-01T05:06:11;32.50;;;16.23;;
26319;SDS011;14024;52.226;5.200;2023-03-01T05:08:38;34.70;;;16.27;;
26319;SDS011;14024;52.226;5.200;2023-03-01T05:11:04;34.35;;;16.00;;
26319;SDS011;14024;52.226;5.200;2023-03-01T05:13:30;33.20;;;15.52;;
26319;SDS011;14024;52.226;5.200;2023-03-01T05:15:57;36.85;;;16.90;;
26319;SDS011;14024;52.226;5.200;2023-03-01T05:18:24;36.03;;;15.90;;
26319;SDS011;14024;52.226;5.200;2023-03-01T05:20:51;32.75;;;16.20;;
26319;SDS011;14024;52.226;5.200;2023-03-01T05:23:17;49.80;;;18.15;;
26319;SDS011;14024;52.226;5.200;2023-03-01T05:25:43;32.55;;;15.30;;
26319;SDS011;14024;52.226;5.200;2023-03-01T05:28:12;40.10;;;16.95;;
26319;SDS011;14024;52.226;5.200;2023-03-01T05:30:39;36.17;;;17.02;;
26319;SDS011;14024;52.226;5.200;2023-03-01T05:33:05;36.47;;;17.13;;
26319;SDS011;14024;52.226;5.200;2023-03-01T05:35:38;38.95;;;17.92;;
26319;SDS011;14024;52.226;5.200;2023-03-01T05:38:05;39.67;;;17.85;;
26319;SDS011;14024;52.226;5.200;2023-03-01T05:40:32;45.60;;;17.30;;
26319;SDS011;14024;52.226;5.200;2023-03-01T05:42:58;35.42;;;16.50;;
26319;SDS011;14024;52.226;5.200;2023-03-01T05:45:25;35.60;;;17.15;;
26319;SDS011;14024;52.226;5.200;2023-03-01T05:47:51;34.97;;;16.92;;
26319;SDS011;14024;52.226;5.200;2023-03-01T05:50:23;38.17;;;17.63;;
26319;SDS011;14024;52.226;5.200;2023-03-01T05:55:51;37.33;;;16.77;;
26319;SDS011;14024;52.226;5.200;2023-03-01T05:58:18;50.03;;;18.45;;
26319;SDS011;14024;52.226;5.200;2023-03-01T06:00:45;40.17;;;16.65;;
26319;SDS011;14024;52.226;5.200;2023-03-01T06:03:13;39.70;;;19.17;;
26319;SDS011;14024;52.226;5.200;2023-03-01T06:05:39;40.08;;;17.17;;
26319;SDS011;14024;52.226;5.200;2023-03-01T06:08:08;38.83;;;17.13;;
26319;SDS011;14024;52.226;5.200;2023-03-01T06:10:34;39.63;;;17.35;;
26319;SDS011;14024;52.226;5.200;2023-03-01T06:13:01;38.72;;;17.85;;
26319;SDS011;14024;52.226;5.200;2023-03-01T06:15:28;37.50;;;17.23;;
26319;SDS011;14024;52.226;5.200;2023-03-01T06:17:55;37.10;;;16.73;;
26319;SDS011;14024;52.226;5.200;2023-03-01T06:20:25;45.05;;;17.75;;
26319;SDS011;14024;52.226;5.200;2023-03-01T06:22:51;34.85;;;17.70;;
26319;SDS011;14024;52.226;5.200;2023-03-01T06:25:19;38.35;;;18.85;;
26319;SDS011;14024;52.226;5.200;2023-03-01T06:27:45;37.33;;;17.02;;
26319;SDS011;14024;52.226;5.200;2023-03-01T06:30:12;38.00;;;17.48;;
26319;SDS011;14024;52.226;5.200;2023-03-01T06:32:39;44.80;;;19.15;;
26319;SDS011;14024;52.226;5.200;2023-03-01T06:35:10;43.22;;;19.42;;
26319;SDS011;14024;52.226;5.200;2023-03-01T06:37:36;43.13;;;18.55;;
26319;SDS011;14024;52.226;5.200;2023-03-01T06:40:03;40.33;;;18.15;;
26319;SDS011;14024;52.226;5.200;2023-03-01T06:42:33;46.58;;;19.00;;
26319;SDS011;14024;52.226;5.200;2023-03-01T06:44:59;36.95;;;17.20;;
26319;SDS011;14024;52.226;5.200;2023-03-01T06:47:25;43.60;;;17.80;;
26319;SDS011;14024;52.226;5.200;2023-03-01T06:49:51;46.17;;;18.75;;
26319;SDS011;14024;52.226;5.200;2023-03-01T06:52:17;40.40;;;18.13;;
26319;SDS011;14024;52.226;5.200;2023-03-01T06:54:43;41.80;;;18.52;;
26319;SDS011;14024;52.226;5.200;2023-03-01T06:57:08;39.15;;;18.60;;
26319;SDS011;14024;52.226;5.200;2023-03-01T06:59:34;43.25;;;18.83;;
26319;SDS011;14024;52.226;5.200;2023-03-01T07:02:00;39.22;;;18.92;;
26319;SDS011;14024;52.226;5.200;2023-03-01T07:04:26;42.17;;;18.48;;
26319;SDS011;14024;52.226;5.200;2023-03-01T07:06:54;42.85;;;18.15;;
26319;SDS011;14024;52.226;5.200;2023-03-01T07:09:20;46.20;;;19.35;;
26319;SDS011;14024;52.226;5.200;2023-03-01T07:11:47;44.45;;;19.90;;
26319;SDS011;14024;52.226;5.200;2023-03-01T07:14:13;43.72;;;18.58;;
26319;SDS011;14024;52.226;5.200;2023-03-01T07:16:39;47.40;;;20.00;;
26319;SDS011;14024;52.226;5.200;2023-03-01T07:19:05;39.42;;;18.35;;
26319;SDS011;14024;52.226;5.200;2023-03-01T07:21:31;39.30;;;18.50;;
26319;SDS011;14024;52.226;5.200;2023-03-01T07:23:57;44.03;;;18.90;;
26319;SDS011;14024;52.226;5.200;2023-03-01T07:26:23;43.42;;;18.40;;
26319;SDS011;14024;52.226;5.200;2023-03-01T07:28:49;44.50;;;20.17;;
26319;SDS011;14024;52.226;5.200;2023-03-01T07:31:15;38.55;;;18.55;;
26319;SDS011;14024;52.226;5.200;2023-03-01T07:33:41;44.80;;;20.50;;
26319;SDS011;14024;52.226;5.200;2023-03-01T07:36:07;55.35;;;22.80;;
26319;SDS011;14024;52.226;5.200;2023-03-01T07:38:34;50.95;;;20.98;;
26319;SDS011;14024;52.226;5.200;2023-03-01T07:41:02;53.35;;;22.63;;
26319;SDS011;14024;52.226;5.200;2023-03-01T07:43:29;59.42;;;24.00;;
26319;SDS011;14024;52.226;5.200;2023-03-01T07:45:57;53.97;;;23.30;;
26319;SDS011;14024;52.226;5.200;2023-03-01T07:48:23;58.83;;;23.80;;
26319;SDS011;14024;52.226;5.200;2023-03-01T07:50:49;53.33;;;23.35;;
26319;SDS011;14024;52.226;5.200;2023-03-01T07:53:17;56.35;;;24.98;;
26319;SDS011;14024;52.226;5.200;2023-03-01T07:55:43;60.78;;;25.23;;
26319;SDS011;14024;52.226;5.200;2023-03-01T07:58:09;59.50;;;23.38;;
26319;SDS011;14024;52.226;5.200;2023-03-01T08:00:35;57.05;;;23.40;;
26319;SDS011;14024;52.226;5.200;2023-03-01T08:03:01;54.35;;;23.75;;
26319;SDS011;14024;52.226;5.200;2023-03-01T08:05:28;59.42;;;24.52;;
26319;SDS011;14024;52.226;5.200;2023-03-01T08:07:54;58.90;;;24.40;;
26319;SDS011;14024;52.226;5.200;2023-03-01T08:10:20;55.97;;;24.92;;
26319;SDS011;14024;52.226;5.200;2023-03-01T08:12:46;55.67;;;23.65;;
26319;SDS011;14024;52.226;5.200;2023-03-01T08:15:12;54.05;;;23.60;;
26319;SDS011;14024;52.226;5.200;2023-03-01T08:17:38;52.05;;;24.50;;
26319;SDS011;14024;52.226;5.200;2023-03-01T08:20:04;50.20;;;22.05;;
26319;SDS011;14024;52.226;5.200;2023-03-01T08:22:31;51.70;;;22.58;;
26319;SDS011;14024;52.226;5.200;2023-03-01T08:24:57;50.72;;;22.90;;
26319;SDS011;14024;52.226;5.200;2023-03-01T08:27:23;51.90;;;22.65;;
26319;SDS011;14024;52.226;5.200;2023-03-01T08:29:49;49.67;;;22.45;;
26319;SDS011;14024;52.226;5.200;2023-03-01T08:32:15;55.10;;;23.08;;
26319;SDS011;14024;52.226;5.200;2023-03-01T08:34:41;53.03;;;23.23;;
26319;SDS011;14024;52.226;5.200;2023-03-01T08:37:07;49.42;;;21.20;;
26319;SDS011;14024;52.226;5.200;2023-03-01T08:39:34;53.05;;;20.00;;
26319;SDS011;14024;52.226;5.200;2023-03-01T08:42:00;44.03;;;20.17;;
26319;SDS011;14024;52.226;5.200;2023-03-01T08:44:26;48.60;;;20.95;;
26319;SDS011;14024;52.226;5.200;2023-03-01T08:46:52;44.90;;;19.83;;
26319;SDS011;14024;52.226;5.200;2023-03-01T08:49:20;35.53;;;17.92;;
26319;SDS011;14024;52.226;5.200;2023-03-01T08:51:46;38.53;;;17.40;;
26319;SDS011;14024;52.226;5.200;2023-03-01T08:54:14;33.17;;;16.40;;
26319;SDS011;14024;52.226;5.200;2023-03-01T08:56:41;33.97;;;15.90;;
26319;SDS011;14024;52.226;5.200;2023-03-01T08:59:07;34.10;;;16.27;;
26319;SDS011;14024;52.226;5.200;2023-03-01T09:01:33;37.55;;;16.13;;
26319;SDS011;14024;52.226;5.200;2023-03-01T09:03:59;31.38;;;16.08;;
26319;SDS011;14024;52.226;5.200;2023-03-01T09:06:25;34.58;;;16.45;;
26319;SDS011;14024;52.226;5.200;2023-03-01T09:08:51;32.28;;;15.52;;
26319;SDS011;14024;52.226;5.200;2023-03-01T09:11:19;31.25;;;14.73;;
26319;SDS011;14024;52.226;5.200;2023-03-01T09:13:46;34.05;;;15.30;;
26319;SDS011;14024;52.226;5.200;2023-03-01T09:16:13;31.13;;;13.98;;
26319;SDS011;14024;52.226;5.200;2023-03-01T09:18:39;26.40;;;13.20;;
26319;SDS011;14024;52.226;5.200;2023-03-01T09:21:06;26.25;;;12.82;;
26319;SDS011;14024;52.226;5.200;2023-03-01T09:23:33;28.48;;;12.60;;
26319;SDS011;14024;52.226;5.200;2023-03-01T09:26:01;28.42;;;13.85;;
26319;SDS011;14024;52.226;5.200;2023-03-01T09:28:28;21.25;;;11.30;;
26319;SDS011;14024;52.226;5.200;2023-03-01T09:30:57;20.33;;;10.15;;
26319;SDS011;14024;52.226;5.200;2023-03-01T09:33:23;23.17;;;10.38;;
26319;SDS011;14024;52.226;5.200;2023-03-01T09:35:49;22.38;;;10.60;;
26319;SDS011;14024;52.226;5.200;2023-03-01T09:38:15;29.15;;;13.25;;
26319;SDS011;14024;52.226;5.200;2023-03-01T09:40:42;26.75;;;13.68;;
26319;SDS011;14024;52.226;5.200;2023-03-01T09:43:18;27.75;;;12.65;;
26319;SDS011;14024;52.226;5.200;2023-03-01T09:45:45;30.15;;;14.27;;
26319;SDS011;14024;52.226;5.200;2023-03-01T09:48:15;27.13;;;13.38;;
26319;SDS011;14024;52.226;5.200;2023-03-01T09:50:42;28.25;;;11.82;;
26319;SDS011;14024;52.226;5.200;2023-03-01T09:53:13;30.45;;;13.70;;
26319;SDS011;14024;52.226;5.200;2023-03-01T09:55:59;28.63;;;13.98;;
26319;SDS011;14024;52.226;5.200;2023-03-01T09:58:47;27.67;;;12.38;;
26319;SDS011;14024;52.226;5.200;2023-03-01T10:06:19;24.75;;;11.40;;
26319;SDS011;14024;52.226;5.200;2023-03-01T10:11:21;23.58;;;10.80;;
26319;SDS011;14024;52.226;5.200;2023-03-01T10:13:50;19.98;;;9.98;;
26319;SDS011;14024;52.226;5.200;2023-03-01T10:16:27;22.27;;;10.88;;
26319;SDS011;14024;52.226;5.200;2023-03-01T10:18:57;17.05;;;9.23;;
26319;SDS011;14024;52.226;5.200;2023-03-01T10:21:25;18.38;;;9.40;;
26319;SDS011;14024;52.226;5.200;2023-03-01T10:23:52;17.52;;;9.18;;
26319;SDS011;14024;52.226;5.200;2023-03-01T10:31:28;18.10;;;8.95;;
26319;SDS011;14024;52.226;5.200;2023-03-01T10:34:02;20.75;;;8.50;;
26319;SDS011;14024;52.226;5.200;2023-03-01T10:36:28;18.30;;;8.80;;
26319;SDS011;14024;52.226;5.200;2023-03-01T10:38:58;12.85;;;7.53;;
26319;SDS011;14024;52.226;5.200;2023-03-01T10:41:27;16.67;;;7.70;;
26319;SDS011;14024;52.226;5.200;2023-03-01T10:43:57;19.63;;;7.53;;
26319;SDS011;14024;52.226;5.200;2023-03-01T10:49:36;14.00;;;7.55;;
26319;SDS011;14024;52.226;5.200;2023-03-01T10:51:37;17.83;;;8.00;;
26319;SDS011;14024;52.226;5.200;2023-03-01T10:54:04;16.13;;;7.68;;
26319;SDS011;14024;52.226;5.200;2023-03-01T10:56:44;13.95;;;6.97;;
26319;SDS011;14024;52.226;5.200;2023-03-01T10:59:22;15.63;;;7.72;;
26319;SDS011;14024;52.226;5.200;2023-03-01T11:01:51;15.45;;;7.03;;
26319;SDS011;14024;52.226;5.200;2023-03-01T11:04:27;14.80;;;7.03;;
26319;SDS011;14024;52.226;5.200;2023-03-01T11:07:00;13.57;;;6.45;;
26319;SDS011;14024;52.226;5.200;2023-03-01T11:09:26;14.48;;;6.78;;
26319;SDS011;14024;52.226;5.200;2023-03-01T11:12:02;14.73;;;7.13;;
26319;SDS011;14024;52.226;5.200;2023-03-01T11:14:33;14.05;;;7.13;;
26319;SDS011;14024;52.226;5.200;2023-03-01T11:17:05;14.00;;;7.75;;
26319;SDS011;14024;52.226;5.200;2023-03-01T11:19:31;13.80;;;7.30;;
26319;SDS011;14024;52.226;5.200;2023-03-01T11:22:02;12.88;;;7.55;;
26319;SDS011;14024;52.226;5.200;2023-03-01T11:27:08;15.05;;;7.78;;
26319;SDS011;14024;52.226;5.200;2023-03-01T11:29:44;12.90;;;6.80;;
26319;SDS011;14024;52.226;5.200;2023-03-01T11:32:12;14.20;;;7.20;;
26319;SDS011;14024;52.226;5.200;2023-03-01T11:34:47;15.32;;;7.40;;
26319;SDS011;14024;52.226;5.200;2023-03-01T11:37:16;13.52;;;6.90;;
26319;SDS011;14024;52.226;5.200;2023-03-01T11:39:50;12.30;;;6.93;;
26319;SDS011;14024;52.226;5.200;2023-03-01T11:42:18;15.55;;;7.32;;
26319;SDS011;14024;52.226;5.200;2023-03-01T11:44:46;11.85;;;6.68;;
26319;SDS011;14024;52.226;5.200;2023-03-01T11:49:58;13.02;;;7.22;;
26319;SDS011;14024;52.226;5.200;2023-03-01T11:55:20;15.82;;;6.95;;
26319;SDS011;14024;52.226;5.200;2023-03-01T12:08:24;14.90;;;7.30;;
26319;SDS011;14024;52.226;5.200;2023-03-01T12:13:36;14.82;;;7.40;;
26319;SDS011;14024;52.226;5.200;2023-03-01T12:16:22;16.55;;;7.53;;
26319;SDS011;14024;52.226;5.200;2023-03-01T12:26:34;13.23;;;7.13;;
26319;SDS011;14024;52.226;5.200;2023-03-01T12:42:18;12.18;;;7.00;;
26319;SDS011;14024;52.226;5.200;2023-03-01T12:50:24;11.93;;;6.20;;
26319;SDS011;14024;52.226;5.200;2023-03-01T12:52:52;14.48;;;6.63;;
26319;SDS011;14024;52.226;5.200;2023-03-01T12:57:49;13.23;;;6.80;;
26319;SDS011;14024;52.226;5.200;2023-03-01T13:02:51;13.32;;;6.15;;
26319;SDS011;14024;52.226;5.200;2023-03-01T13:08:08;11.40;;;6.00;;
26319;SDS011;14024;52.226;5.200;2023-03-01T13:10:46;13.90;;;6.57;;
26319;SDS011;14024;52.226;5.200;2023-03-01T13:13:15;14.13;;;6.20;;
26319;SDS011;14024;52.226;5.200;2023-03-01T13:15:44;9.52;;;5.90;;
26319;SDS011;14024;52.226;5.200;2023-03-01T13:25:33;14.93;;;6.75;;
26319;SDS011;14024;52.226;5.200;2023-03-01T13:30:44;13.75;;;7.47;;
26319;SDS011;14024;52.226;5.200;2023-03-01T13:35:51;12.27;;;6.05;;
26319;SDS011;14024;52.226;5.200;2023-03-01T13:41:03;11.65;;;5.80;;
26319;SDS011;14024;52.226;5.200;2023-03-01T13:43:34;10.48;;;5.60;;
26319;SDS011;14024;52.226;5.200;2023-03-01T13:46:01;9.90;;;5.82;;
26319;SDS011;14024;52.226;5.200;2023-03-01T13:48:28;14.77;;;6.70;;
26319;SDS011;14024;52.226;5.200;2023-03-01T13:50:57;10.30;;;5.65;;
26319;SDS011;14024;52.226;5.200;2023-03-01T13:53:25;14.70;;;6.68;;
26319;SDS011;14024;52.226;5.200;2023-03-01T13:55:56;12.18;;;6.53;;
26319;SDS011;14024;52.226;5.200;2023-03-01T13:58:25;12.35;;;6.28;;
26319;SDS011;14024;52.226;5.200;2023-03-01T14:00:58;12.70;;;6.20;;
26319;SDS011;14024;52.226;5.200;2023-03-01T14:06:07;10.85;;;6.18;;
26319;SDS011;14024;52.226;5.200;2023-03-01T14:08:34;13.50;;;6.53;;
26319;SDS011;14024;52.226;5.200;2023-03-01T14:21:29;10.25;;;6.00;;
26319;SDS011;14024;52.226;5.200;2023-03-01T14:23:56;11.07;;;5.95;;
26319;SDS011;14024;52.226;5.200;2023-03-01T14:26:23;10.75;;;6.10;;
26319;SDS011;14024;52.226;5.200;2023-03-01T14:28:49;10.52;;;5.88;;
26319;SDS011;14024;52.226;5.200;2023-03-01T14:31:32;12.98;;;6.35;;
26319;SDS011;14024;52.226;5.200;2023-03-01T14:34:00;13.88;;;6.20;;
26319;SDS011;14024;52.226;5.200;2023-03-01T14:36:28;12.63;;;6.75;;
26319;SDS011;14024;52.226;5.200;2023-03-01T14:38:54;10.95;;;5.45;;
26319;SDS011;14024;52.226;5.200;2023-03-01T14:41:22;10.82;;;6.00;;
26319;SDS011;14024;52.226;5.200;2023-03-01T14:43:50;13.70;;;6.40;;
26319;SDS011;14024;52.226;5.200;2023-03-01T14:46:24;11.75;;;5.95;;
26319;SDS011;14024;52.226;5.200;2023-03-01T14:51:16;11.93;;;5.68;;
26319;SDS011;14024;52.226;5.200;2023-03-01T14:53:42;11.45;;;6.40;;
26319;SDS011;14024;52.226;5.200;2023-03-01T14:56:15;12.50;;;6.10;;
26319;SDS011;14024;52.226;5.200;2023-03-01T14:58:44;10.95;;;5.90;;
26319;SDS011;14024;52.226;5.200;2023-03-01T15:01:16;11.27;;;5.80;;
26319;SDS011;14024;52.226;5.200;2023-03-01T15:03:43;11.18;;;6.22;;
26319;SDS011;14024;52.226;5.200;2023-03-01T15:06:10;13.35;;;6.00;;
26319;SDS011;14024;52.226;5.200;2023-03-01T15:08:44;11.55;;;6.07;;
26319;SDS011;14024;52.226;5.200;2023-03-01T15:13:43;12.95;;;6.13;;
26319;SDS011;14024;52.226;5.200;2023-03-01T15:16:12;11.70;;;5.65;;
26319;SDS011;14024;52.226;5.200;2023-03-01T15:18:49;10.40;;;6.05;;
26319;SDS011;14024;52.226;5.200;2023-03-01T15:23:59;13.98;;;6.38;;
26319;SDS011;14024;52.226;5.200;2023-03-01T15:26:31;11.77;;;6.07;;
26319;SDS011;14024;52.226;5.200;2023-03-01T15:28:59;9.43;;;5.80;;
26319;SDS011;14024;52.226;5.200;2023-03-01T15:31:36;12.80;;;6.80;;
26319;SDS011;14024;52.226;5.200;2023-03-01T15:34:07;10.93;;;6.32;;
26319;SDS011;14024;52.226;5.200;2023-03-01T15:39:00;12.27;;;6.32;;
26319;SDS011;14024;52.226;5.200;2023-03-01T15:41:30;13.48;;;5.80;;
26319;SDS011;14024;52.226;5.200;2023-03-01T15:44:00;11.95;;;6.15;;
26319;SDS011;14024;52.226;5.200;2023-03-01T15:46:34;12.32;;;6.85;;
26319;SDS011;14024;52.226;5.200;2023-03-01T15:51:49;14.13;;;7.05;;
26319;SDS011;14024;52.226;5.200;2023-03-01T15:54:18;15.85;;;7.00;;
26319;SDS011;14024;52.226;5.200;2023-03-01T15:56:44;12.70;;;6.80;;
26319;SDS011;14024;52.226;5.200;2023-03-01T15:59:11;13.73;;;7.05;;
26319;SDS011;14024;52.226;5.200;2023-03-01T16:01:41;13.48;;;7.20;;
26319;SDS011;14024;52.226;5.200;2023-03-01T16:04:09;19.40;;;7.38;;
26319;SDS011;14024;52.226;5.200;2023-03-01T16:06:41;12.40;;;7.13;;
26319;SDS011;14024;52.226;5.200;2023-03-01T16:09:07;15.60;;;7.18;;
26319;SDS011;14024;52.226;5.200;2023-03-01T16:11:35;14.75;;;7.03;;
26319;SDS011;14024;52.226;5.200;2023-03-01T16:14:02;16.75;;;7.32;;
26319;SDS011;14024;52.226;5.200;2023-03-01T16:16:28;13.50;;;7.18;;
26319;SDS011;14024;52.226;5.200;2023-03-01T16:18:54;19.30;;;8.00;;
26319;SDS011;14024;52.226;5.200;2023-03-01T16:21:21;16.42;;;7.70;;
26319;SDS011;14024;52.226;5.200;2023-03-01T16:23:48;13.05;;;7.20;;
26319;SDS011;14024;52.226;5.200;2023-03-01T16:26:14;17.05;;;7.50;;
26319;SDS011;14024;52.226;5.200;2023-03-01T16:28:41;14.40;;;7.00;;
26319;SDS011;14024;52.226;5.200;2023-03-01T16:31:07;15.98;;;7.65;;